sensor_id;sensor_type;location;lat;lon;timestamp;pressure;altitude;pressure_sealevel;temperature;humidity
25610;BME280;13479;49.044;8.716;2023-05-21T04:01:52;98633.00;;;14.67;84.38
25610;BME280;13479;49.044;8.716;2023-05-21T04:04:18;98635.63;;;14.59;84.55
25610;BME280;13479;49.044;8.716;2023-05-21T04:06:43;98631.31;;;14.58;84.91
25610;BME280;13479;49.044;8.716;2023-05-21T04:09:08;98635.97;;;14.56;84.75
25610;BME280;13479;49.044;8.716;2023-05-21T04:11:33;98642.47;;;14.53;85.21
25610;BME280;13479;49.044;8.716;2023-05-21T04:13:59;98649.00;;;14.50;85.20
25610;BME280;13479;49.044;8.716;2023-05-21T04:16:25;98650.97;;;14.48;85.44
25610;BME280;13479;49.044;8.716;2023-05-21T04:18:50;98656.84;;;14.52;85.16
25610;BME280;13479;49.044;8.716;2023-05-21T04:21:16;98658.84;;;14.50;85.40
25610;BME280;13479;49.044;8.716;2023-05-21T04:23:41;98654.50;;;14.49;85.63
25610;BME280;13479;49.044;8.716;2023-05-21T04:26:06;98661.03;;;14.55;85.24
25610;BME280;13479;49.044;8.716;2023-05-21T04:28:32;98667.53;;;14.60;85.31
25610;BME280;13479;49.044;8.716;2023-05-21T04:30:59;98681.72;;;14.61;85.08
25610;BME280;13479;49.044;8.716;2023-05-21T04:33:24;98681.75;;;14.69;85.17
25610;BME280;13479;49.044;8.716;2023-05-21T04:35:50;98700.09;;;14.72;84.58
25610;BME280;13479;49.044;8.716;2023-05-21T04:38:16;98684.25;;;14.71;84.55
25610;BME280;13479;49.044;8.716;2023-05-21T04:40:47;98693.25;;;14.78;84.44
25610;BME280;13479;49.044;8.716;2023-05-21T04:43:14;98697.09;;;14.83;84.57
25610;BME280;13479;49.044;8.716;2023-05-21T04:45:41;98713.47;;;14.97;83.44
25610;BME280;13479;49.044;8.716;2023-05-21T04:48:06;98706.94;;;15.00;83.29
25610;BME280;13479;49.044;8.716;2023-05-21T04:50:31;98700.09;;;15.05;82.60
25610;BME280;13479;49.044;8.716;2023-05-21T04:52:57;98683.91;;;15.07;82.61
25610;BME280;13479;49.044;8.716;2023-05-21T04:55:23;98678.88;;;15.04;82.78
25610;BME280;13479;49.044;8.716;2023-05-21T04:57:48;98678.84;;;15.12;82.58
25610;BME280;13479;49.044;8.716;2023-05-21T05:00:14;98698.72;;;15.34;81.71
25610;BME280;13479;49.044;8.716;2023-05-21T05:02:40;98687.66;;;15.37;81.07
25610;BME280;13479;49.044;8.716;2023-05-21T05:05:06;98674.59;;;15.42;80.90
25610;BME280;13479;49.044;8.716;2023-05-21T05:07:31;98678.63;;;15.47;80.61
25610;BME280;13479;49.044;8.716;2023-05-21T05:09:56;98684.91;;;15.62;80.55
25610;BME280;13479;49.044;8.716;2023-05-21T05:12:21;98669.66;;;15.71;80.31
25610;BME280;13479;49.044;8.716;2023-05-21T05:14:47;98671.63;;;15.77;79.67
25610;BME280;13479;49.044;8.716;2023-05-21T05:17:12;98666.75;;;15.89;79.27
25610;BME280;13479;49.044;8.716;2023-05-21T05:19:40;98666.97;;;16.11;79.10
25610;BME280;13479;49.044;8.716;2023-05-21T05:22:05;98683.53;;;16.38;77.71
25610;BME280;13479;49.044;8.716;2023-05-21T05:24:31;98663.34;;;16.50;76.73
25610;BME280;13479;49.044;8.716;2023-05-21T05:26:56;98656.00;;;16.67;76.34
25610;BME280;13479;49.044;8.716;2023-05-21T05:29:21;98646.59;;;16.86;75.60
25610;BME280;13479;49.044;8.716;2023-05-21T05:31:46;98652.69;;;17.18;74.18
25610;BME280;13479;49.044;8.716;2023-05-21T05:34:12;98653.63;;;17.40;73.07
25610;BME280;13479;49.044;8.716;2023-05-21T05:36:37;98630.44;;;17.69;72.63
25610;BME280;13479;49.044;8.716;2023-05-21T05:39:02;98635.97;;;17.98;70.82
25610;BME280;13479;49.044;8.716;2023-05-21T05:41:28;98605.69;;;18.26;70.04
25610;BME280;13479;49.044;8.716;2023-05-21T05:43:53;98605.78;;;18.61;68.86
25610;BME280;13479;49.044;8.716;2023-05-21T05:46:18;98615.59;;;18.97;67.31
25610;BME280;13479;49.044;8.716;2023-05-21T05:48:44;98607.94;;;19.42;66.04
25610;BME280;13479;49.044;8.716;2023-05-21T05:51:09;98617.97;;;20.04;64.04
25610;BME280;13479;49.044;8.716;2023-05-21T05:53:36;98612.63;;;20.78;61.34
25610;BME280;13479;49.044;8.716;2023-05-21T05:56:01;98605.09;;;21.79;58.62
25610;BME280;13479;49.044;8.716;2023-05-21T05:58:28;98600.75;;;22.93;55.67
25610;BME280;13479;49.044;8.716;2023-05-21T06:00:53;98598.31;;;24.15;52.22
25610;BME280;13479;49.044;8.716;2023-05-21T06:03:19;98602.97;;;25.45;49.24
25610;BME280;13479;49.044;8.716;2023-05-21T06:05:44;98618.09;;;26.57;46.18
25610;BME280;13479;49.044;8.716;2023-05-21T06:08:09;98621.19;;;27.56;43.31
25610;BME280;13479;49.044;8.716;2023-05-21T06:10:35;98642.66;;;28.19;41.16
25610;BME280;13479;49.044;8.716;2023-05-21T06:13:00;98637.63;;;28.33;39.59
25610;BME280;13479;49.044;8.716;2023-05-21T06:15:25;98655.53;;;28.51;38.98
25610;BME280;13479;49.044;8.716;2023-05-21T06:17:50;98672.00;;;28.61;38.01
25610;BME280;13479;49.044;8.716;2023-05-21T06:20:16;98665.59;;;28.78;37.86
25610;BME280;13479;49.044;8.716;2023-05-21T06:22:41;98672.34;;;29.03;37.60
25610;BME280;13479;49.044;8.716;2023-05-21T06:25:06;98685.78;;;29.52;36.85
25610;BME280;13479;49.044;8.716;2023-05-21T06:27:32;98685.53;;;30.23;34.96
25610;BME280;13479;49.044;8.716;2023-05-21T06:29:57;98694.59;;;30.28;35.18
25610;BME280;13479;49.044;8.716;2023-05-21T06:32:23;98700.44;;;30.68;34.93
25610;BME280;13479;49.044;8.716;2023-05-21T06:34:48;98699.91;;;31.13;33.92
25610;BME280;13479;49.044;8.716;2023-05-21T06:37:18;98700.13;;;31.01;32.94
25610;BME280;13479;49.044;8.716;2023-05-21T06:39:44;98710.78;;;30.45;33.89
25610;BME280;13479;49.044;8.716;2023-05-21T06:42:10;98717.28;;;30.18;34.09
25610;BME280;13479;49.044;8.716;2023-05-21T06:44:35;98711.78;;;29.55;35.22
25610;BME280;13479;49.044;8.716;2023-05-21T06:47:01;98686.91;;;29.56;35.17
25610;BME280;13479;49.044;8.716;2023-05-21T06:49:26;98676.72;;;30.00;35.38
25610;BME280;13479;49.044;8.716;2023-05-21T06:51:51;98699.59;;;30.68;33.75
25610;BME280;13479;49.044;8.716;2023-05-21T06:54:16;98707.53;;;31.10;33.31
25610;BME280;13479;49.044;8.716;2023-05-21T06:56:42;98710.78;;;31.54;32.58
25610;BME280;13479;49.044;8.716;2023-05-21T06:59:07;98705.97;;;32.51;31.25
25610;BME280;13479;49.044;8.716;2023-05-21T07:01:33;98711.91;;;33.33;29.49
25610;BME280;13479;49.044;8.716;2023-05-21T07:03:58;98723.19;;;33.02;29.01
25610;BME280;13479;49.044;8.716;2023-05-21T07:06:23;98721.66;;;31.85;30.89
25610;BME280;13479;49.044;8.716;2023-05-21T07:08:49;98717.97;;;30.98;32.06
25610;BME280;13479;49.044;8.716;2023-05-21T07:11:14;98691.31;;;30.52;32.88
25610;BME280;13479;49.044;8.716;2023-05-21T07:13:40;98681.44;;;30.35;33.33
25610;BME280;13479;49.044;8.716;2023-05-21T07:16:05;98682.28;;;30.51;32.83
25610;BME280;13479;49.044;8.716;2023-05-21T07:18:30;98673.84;;;30.79;32.81
25610;BME280;13479;49.044;8.716;2023-05-21T07:20:56;98678.22;;;31.21;31.98
25610;BME280;13479;49.044;8.716;2023-05-21T07:23:21;98694.09;;;32.11;30.72
25610;BME280;13479;49.044;8.716;2023-05-21T07:25:46;98701.38;;;32.76;29.72
25610;BME280;13479;49.044;8.716;2023-05-21T07:28:12;98705.97;;;33.98;28.17
25610;BME280;13479;49.044;8.716;2023-05-21T07:30:37;98713.94;;;34.95;27.35
25610;BME280;13479;49.044;8.716;2023-05-21T07:33:02;98715.91;;;35.70;26.25
25610;BME280;13479;49.044;8.716;2023-05-21T07:35:27;98727.91;;;35.93;25.65
25610;BME280;13479;49.044;8.716;2023-05-21T07:37:53;98723.50;;;36.57;25.37
25610;BME280;13479;49.044;8.716;2023-05-21T07:40:18;98723.50;;;37.34;24.17
25610;BME280;13479;49.044;8.716;2023-05-21T07:42:43;98729.72;;;38.29;23.21
25610;BME280;13479;49.044;8.716;2023-05-21T07:45:09;98728.53;;;39.18;21.93
25610;BME280;13479;49.044;8.716;2023-05-21T07:47:34;98725.78;;;39.18;21.83
25610;BME280;13479;49.044;8.716;2023-05-21T07:50:00;98729.94;;;40.19;21.07
25610;BME280;13479;49.044;8.716;2023-05-21T07:52:25;98735.94;;;41.06;20.15
25610;BME280;13479;49.044;8.716;2023-05-21T07:54:50;98727.91;;;41.50;19.36
25610;BME280;13479;49.044;8.716;2023-05-21T07:57:15;98726.38;;;40.10;20.38
25610;BME280;13479;49.044;8.716;2023-05-21T07:59:41;98726.19;;;39.85;21.01
25610;BME280;13479;49.044;8.716;2023-05-21T08:02:06;98725.72;;;39.35;21.01
25610;BME280;13479;49.044;8.716;2023-05-21T08:04:31;98729.19;;;39.23;21.80
25610;BME280;13479;49.044;8.716;2023-05-21T08:06:57;98715.31;;;39.23;21.75
25610;BME280;13479;49.044;8.716;2023-05-21T08:09:22;98714.81;;;39.78;21.24
25610;BME280;13479;49.044;8.716;2023-05-21T08:11:47;98724.81;;;39.61;21.50
25610;BME280;13479;49.044;8.716;2023-05-21T08:14:13;98712.16;;;39.43;21.63
25610;BME280;13479;49.044;8.716;2023-05-21T08:16:38;98712.94;;;38.69;21.98
25610;BME280;13479;49.044;8.716;2023-05-21T08:19:03;98707.22;;;38.22;22.19
25610;BME280;13479;49.044;8.716;2023-05-21T08:21:28;98693.50;;;38.16;23.17
25610;BME280;13479;49.044;8.716;2023-05-21T08:23:54;98687.63;;;38.97;22.33
25610;BME280;13479;49.044;8.716;2023-05-21T08:26:19;98687.81;;;38.74;22.07
25610;BME280;13479;49.044;8.716;2023-05-21T08:28:45;98694.81;;;38.89;21.70
25610;BME280;13479;49.044;8.716;2023-05-21T08:31:10;98693.91;;;39.72;21.44
25610;BME280;13479;49.044;8.716;2023-05-21T08:33:36;98696.22;;;39.99;20.92
25610;BME280;13479;49.044;8.716;2023-05-21T08:36:06;98703.94;;;40.15;20.19
25610;BME280;13479;49.044;8.716;2023-05-21T08:38:31;98707.13;;;39.75;20.54
25610;BME280;13479;49.044;8.716;2023-05-21T08:40:58;98702.34;;;39.84;20.67
25610;BME280;13479;49.044;8.716;2023-05-21T08:43:26;98704.41;;;39.10;21.42
25610;BME280;13479;49.044;8.716;2023-05-21T08:45:53;98696.22;;;39.22;21.44
25610;BME280;13479;49.044;8.716;2023-05-21T08:48:23;98685.06;;;39.39;21.20
25610;BME280;13479;49.044;8.716;2023-05-21T08:50:52;98687.22;;;39.73;20.93
25610;BME280;13479;49.044;8.716;2023-05-21T08:53:18;98694.56;;;39.98;20.72
25610;BME280;13479;49.044;8.716;2023-05-21T08:55:43;98697.44;;;40.74;20.39
25610;BME280;13479;49.044;8.716;2023-05-21T08:58:09;98697.72;;;40.94;19.02
25610;BME280;13479;49.044;8.716;2023-05-21T09:00:34;98695.19;;;41.47;18.29
25610;BME280;13479;49.044;8.716;2023-05-21T09:03:00;98709.47;;;40.45;18.46
25610;BME280;13479;49.044;8.716;2023-05-21T09:05:27;98715.00;;;39.64;19.64
25610;BME280;13479;49.044;8.716;2023-05-21T09:07:58;98707.19;;;38.13;21.35
25610;BME280;13479;49.044;8.716;2023-05-21T09:10:33;98696.09;;;38.04;21.63
25610;BME280;13479;49.044;8.716;2023-05-21T09:13:00;98679.97;;;37.89;22.15
25610;BME280;13479;49.044;8.716;2023-05-21T09:15:25;98685.84;;;38.13;22.11
25610;BME280;13479;49.044;8.716;2023-05-21T09:17:50;98674.63;;;38.27;21.45
25610;BME280;13479;49.044;8.716;2023-05-21T09:20:16;98666.22;;;37.83;22.06
25610;BME280;13479;49.044;8.716;2023-05-21T09:22:46;98667.81;;;37.67;22.22
25610;BME280;13479;49.044;8.716;2023-05-21T09:25:16;98665.69;;;37.73;22.57
25610;BME280;13479;49.044;8.716;2023-05-21T09:27:42;98666.72;;;37.85;22.37
25610;BME280;13479;49.044;8.716;2023-05-21T09:30:12;98676.16;;;37.35;21.98
25610;BME280;13479;49.044;8.716;2023-05-21T09:32:38;98669.69;;;36.86;22.78
25610;BME280;13479;49.044;8.716;2023-05-21T09:35:12;98661.34;;;36.17;23.72
25610;BME280;13479;49.044;8.716;2023-05-21T09:40:09;98650.66;;;35.18;24.66
25610;BME280;13479;49.044;8.716;2023-05-21T09:42:35;98643.31;;;34.09;25.44
25610;BME280;13479;49.044;8.716;2023-05-21T09:45:00;98652.06;;;33.19;26.98
25610;BME280;13479;49.044;8.716;2023-05-21T09:47:25;98640.56;;;32.53;27.29
25610;BME280;13479;49.044;8.716;2023-05-21T09:49:51;98632.66;;;32.01;27.84
25610;BME280;13479;49.044;8.716;2023-05-21T09:52:23;98626.84;;;31.58;28.60
25610;BME280;13479;49.044;8.716;2023-05-21T09:54:52;98634.81;;;31.44;29.62
25610;BME280;13479;49.044;8.716;2023-05-21T09:57:24;98631.59;;;31.11;29.88
25610;BME280;13479;49.044;8.716;2023-05-21T09:59:50;98625.31;;;31.10;29.87
25610;BME280;13479;49.044;8.716;2023-05-21T10:02:20;98620.31;;;31.38;30.00
25610;BME280;13479;49.044;8.716;2023-05-21T10:04:50;98616.03;;;31.77;30.02
25610;BME280;13479;49.044;8.716;2023-05-21T10:07:20;98609.34;;;32.39;28.83
25610;BME280;13479;49.044;8.716;2023-05-21T10:09:52;98606.97;;;32.61;28.62
25610;BME280;13479;49.044;8.716;2023-05-21T10:12:21;98612.81;;;33.14;28.36
25610;BME280;13479;49.044;8.716;2023-05-21T10:14:50;98621.00;;;33.92;27.64
25610;BME280;13479;49.044;8.716;2023-05-21T10:17:18;98630.50;;;34.57;27.16
25610;BME280;13479;49.044;8.716;2023-05-21T10:19:45;98632.88;;;35.10;26.04
25610;BME280;13479;49.044;8.716;2023-05-21T10:22:12;98651.28;;;35.29;26.79
25610;BME280;13479;49.044;8.716;2023-05-21T10:24:39;98650.09;;;35.49;26.01
25610;BME280;13479;49.044;8.716;2023-05-21T10:27:05;98654.38;;;35.69;25.86
25610;BME280;13479;49.044;8.716;2023-05-21T10:29:31;98652.84;;;35.63;26.15
25610;BME280;13479;49.044;8.716;2023-05-21T10:31:57;98660.84;;;35.51;25.38
25610;BME280;13479;49.044;8.716;2023-05-21T10:34:25;98650.13;;;35.16;25.44
25610;BME280;13479;49.044;8.716;2023-05-21T10:36:53;98653.75;;;34.51;26.58
25610;BME280;13479;49.044;8.716;2023-05-21T10:39:21;98642.25;;;34.24;26.81
25610;BME280;13479;49.044;8.716;2023-05-21T10:42:17;98638.34;;;33.68;27.39
25610;BME280;13479;49.044;8.716;2023-05-21T10:55:52;98606.28;;;32.06;29.51
25610;BME280;13479;49.044;8.716;2023-05-21T11:00:54;98598.06;;;31.45;30.09
25610;BME280;13479;49.044;8.716;2023-05-21T11:03:21;98592.16;;;30.96;30.30
25610;BME280;13479;49.044;8.716;2023-05-21T11:08:21;98609.72;;;30.28;32.58
25610;BME280;13479;49.044;8.716;2023-05-21T11:10:56;98591.38;;;30.44;32.31
25610;BME280;13479;49.044;8.716;2023-05-21T11:13:22;98595.22;;;30.74;32.22
25610;BME280;13479;49.044;8.716;2023-05-21T11:21:15;98587.50;;;30.97;31.31
25610;BME280;13479;49.044;8.716;2023-05-21T11:26:14;98591.41;;;30.55;31.56
25610;BME280;13479;49.044;8.716;2023-05-21T11:28:40;98570.03;;;30.31;31.79
25610;BME280;13479;49.044;8.716;2023-05-21T11:31:24;98582.06;;;30.45;32.02
25610;BME280;13479;49.044;8.716;2023-05-21T11:34:20;98584.53;;;30.37;31.13
25610;BME280;13479;49.044;8.716;2023-05-21T11:39:40;98586.91;;;29.92;31.73
25610;BME280;13479;49.044;8.716;2023-05-21T11:42:05;98571.53;;;29.70;32.05
25610;BME280;13479;49.044;8.716;2023-05-21T11:44:44;98562.78;;;29.63;31.98
25610;BME280;13479;49.044;8.716;2023-05-21T11:47:11;98562.19;;;29.50;32.66
25610;BME280;13479;49.044;8.716;2023-05-21T11:49:37;98565.44;;;29.42;32.44
25610;BME280;13479;49.044;8.716;2023-05-21T11:52:04;98561.06;;;29.46;32.93
25610;BME280;13479;49.044;8.716;2023-05-21T11:54:31;98562.16;;;29.45;32.65
25610;BME280;13479;49.044;8.716;2023-05-21T11:57:04;98567.03;;;29.33;32.57
25610;BME280;13479;49.044;8.716;2023-05-21T11:59:31;98568.16;;;29.37;31.84
25610;BME280;13479;49.044;8.716;2023-05-21T12:01:57;98574.81;;;29.62;31.10
25610;BME280;13479;49.044;8.716;2023-05-21T12:04:23;98589.56;;;29.61;31.24
25610;BME280;13479;49.044;8.716;2023-05-21T12:06:48;98589.78;;;29.43;31.19
25610;BME280;13479;49.044;8.716;2023-05-21T12:09:14;98582.66;;;29.37;31.99
25610;BME280;13479;49.044;8.716;2023-05-21T12:11:40;98587.84;;;29.39;32.05
25610;BME280;13479;49.044;8.716;2023-05-21T12:14:06;98581.38;;;29.07;32.04
25610;BME280;13479;49.044;8.716;2023-05-21T12:16:33;98577.09;;;28.79;32.81
25610;BME280;13479;49.044;8.716;2023-05-21T12:18:58;98566.31;;;28.62;32.94
25610;BME280;13479;49.044;8.716;2023-05-21T12:21:26;98567.03;;;28.47;33.38
25610;BME280;13479;49.044;8.716;2023-05-21T12:23:52;98559.81;;;28.30;33.36
25610;BME280;13479;49.044;8.716;2023-05-21T12:26:17;98565.50;;;28.29;34.30
25610;BME280;13479;49.044;8.716;2023-05-21T12:28:42;98568.09;;;28.41;33.56
25610;BME280;13479;49.044;8.716;2023-05-21T12:31:13;98557.09;;;28.30;34.07
25610;BME280;13479;49.044;8.716;2023-05-21T12:33:39;98562.53;;;28.30;34.22
25610;BME280;13479;49.044;8.716;2023-05-21T12:36:04;98559.25;;;28.28;34.56
25610;BME280;13479;49.044;8.716;2023-05-21T12:38:30;98562.47;;;28.20;33.80
25610;BME280;13479;49.044;8.716;2023-05-21T12:41:01;98546.97;;;28.31;34.18
25610;BME280;13479;49.044;8.716;2023-05-21T12:43:30;98551.56;;;28.58;33.68
25610;BME280;13479;49.044;8.716;2023-05-21T12:45:55;98541.63;;;28.84;33.68
25610;BME280;13479;49.044;8.716;2023-05-21T12:48:21;98560.31;;;28.97;33.21
25610;BME280;13479;49.044;8.716;2023-05-21T12:50:46;98558.19;;;29.10;33.34
25610;BME280;13479;49.044;8.716;2023-05-21T12:53:11;98558.34;;;29.46;33.47
25610;BME280;13479;49.044;8.716;2023-05-21T12:55:37;98557.88;;;29.65;33.20
25610;BME280;13479;49.044;8.716;2023-05-21T12:58:03;98567.19;;;29.84;32.83
25610;BME280;13479;49.044;8.716;2023-05-21T13:00:35;98580.13;;;30.10;31.88
25610;BME280;13479;49.044;8.716;2023-05-21T13:03:01;98596.28;;;30.06;31.87
25610;BME280;13479;49.044;8.716;2023-05-21T13:05:28;98591.66;;;30.17;31.28
25610;BME280;13479;49.044;8.716;2023-05-21T13:07:53;98596.28;;;30.16;31.30
25610;BME280;13479;49.044;8.716;2023-05-21T13:10:18;98594.66;;;30.36;30.70
25610;BME280;13479;49.044;8.716;2023-05-21T13:12:44;98599.03;;;30.53;31.63
25610;BME280;13479;49.044;8.716;2023-05-21T13:15:09;98591.41;;;30.65;31.16
25610;BME280;13479;49.044;8.716;2023-05-21T13:17:34;98594.13;;;30.70;31.82
25610;BME280;13479;49.044;8.716;2023-05-21T13:20:10;98582.06;;;30.87;32.50
25610;BME280;13479;49.044;8.716;2023-05-21T13:22:43;98577.63;;;31.01;32.11
25610;BME280;13479;49.044;8.716;2023-05-21T13:25:22;98580.91;;;31.08;31.00
25610;BME280;13479;49.044;8.716;2023-05-21T13:27:50;98589.16;;;30.98;30.53
25610;BME280;13479;49.044;8.716;2023-05-21T13:30:16;98583.13;;;31.01;31.83
25610;BME280;13479;49.044;8.716;2023-05-21T13:32:42;98585.84;;;31.06;31.37
25610;BME280;13479;49.044;8.716;2023-05-21T13:35:08;98582.53;;;31.15;30.96
25610;BME280;13479;49.044;8.716;2023-05-21T13:37:34;98595.16;;;31.05;30.31
25610;BME280;13479;49.044;8.716;2023-05-21T13:40:04;98599.56;;;30.91;30.04
25610;BME280;13479;49.044;8.716;2023-05-21T13:42:30;98602.59;;;30.89;30.24
25610;BME280;13479;49.044;8.716;2023-05-21T13:44:55;98600.94;;;30.88;29.99
25610;BME280;13479;49.044;8.716;2023-05-21T13:47:20;98603.09;;;30.96;29.68
25610;BME280;13479;49.044;8.716;2023-05-21T13:49:46;98598.44;;;31.02;29.78
25610;BME280;13479;49.044;8.716;2023-05-21T13:52:11;98588.56;;;31.06;31.39
25610;BME280;13479;49.044;8.716;2023-05-21T13:54:36;98579.81;;;31.15;32.24
25610;BME280;13479;49.044;8.716;2023-05-21T13:57:02;98577.91;;;31.15;31.93
25610;BME280;13479;49.044;8.716;2023-05-21T13:59:28;98572.97;;;31.12;31.55
25610;BME280;13479;49.044;8.716;2023-05-21T14:01:53;98577.09;;;30.99;31.19
25610;BME280;13479;49.044;8.716;2023-05-21T14:04:18;98582.00;;;31.07;30.17
25610;BME280;13479;49.044;8.716;2023-05-21T14:06:44;98596.88;;;30.75;30.44
25610;BME280;13479;49.044;8.716;2023-05-21T14:09:10;98600.19;;;30.57;30.53
25610;BME280;13479;49.044;8.716;2023-05-21T14:11:35;98591.38;;;30.44;31.19
25610;BME280;13479;49.044;8.716;2023-05-21T14:14:02;98587.25;;;30.42;31.27
25610;BME280;13479;49.044;8.716;2023-05-21T14:16:27;98580.97;;;30.41;31.00
25610;BME280;13479;49.044;8.716;2023-05-21T14:18:53;98573.84;;;30.40;31.66
25610;BME280;13479;49.044;8.716;2023-05-21T14:21:19;98572.19;;;30.49;32.92
25610;BME280;13479;49.044;8.716;2023-05-21T14:23:45;98560.69;;;30.73;32.24
25610;BME280;13479;49.044;8.716;2023-05-21T14:26:10;98562.66;;;30.62;33.01
25610;BME280;13479;49.044;8.716;2023-05-21T14:28:35;98550.31;;;30.65;32.54
25610;BME280;13479;49.044;8.716;2023-05-21T14:31:01;98549.47;;;30.80;33.48
25610;BME280;13479;49.044;8.716;2023-05-21T14:33:26;98558.47;;;30.86;34.45
25610;BME280;13479;49.044;8.716;2023-05-21T14:35:51;98551.38;;;30.90;33.43
25610;BME280;13479;49.044;8.716;2023-05-21T14:38:16;98549.69;;;30.94;33.33
25610;BME280;13479;49.044;8.716;2023-05-21T14:40:42;98556.25;;;30.98;32.55
25610;BME280;13479;49.044;8.716;2023-05-21T14:43:07;98561.44;;;31.05;32.62
25610;BME280;13479;49.044;8.716;2023-05-21T14:45:32;98562.50;;;31.19;32.47
25610;BME280;13479;49.044;8.716;2023-05-21T14:48:00;98554.00;;;31.26;32.87
25610;BME280;13479;49.044;8.716;2023-05-21T14:50:26;98555.41;;;31.18;32.34
25610;BME280;13479;49.044;8.716;2023-05-21T14:52:51;98550.19;;;31.17;32.95
25610;BME280;13479;49.044;8.716;2023-05-21T14:55:16;98552.44;;;30.99;31.81
25610;BME280;13479;49.044;8.716;2023-05-21T14:57:43;98553.22;;;31.00;32.54
25610;BME280;13479;49.044;8.716;2023-05-21T15:00:09;98544.16;;;31.04;34.11
25610;BME280;13479;49.044;8.716;2023-05-21T15:02:36;98535.72;;;30.95;33.50
25610;BME280;13479;49.044;8.716;2023-05-21T15:05:01;98538.75;;;30.89;33.69
25610;BME280;13479;49.044;8.716;2023-05-21T15:07:27;98531.66;;;30.72;33.45
25610;BME280;13479;49.044;8.716;2023-05-21T15:09:52;98523.22;;;30.58;34.90
25610;BME280;13479;49.044;8.716;2023-05-21T15:12:17;98522.38;;;30.53;34.33
25610;BME280;13479;49.044;8.716;2023-05-21T15:14:42;98534.41;;;30.62;35.21
25610;BME280;13479;49.044;8.716;2023-05-21T15:17:08;98517.97;;;30.51;34.59
25610;BME280;13479;49.044;8.716;2023-05-21T15:19:33;98527.28;;;30.35;33.98
25610;BME280;13479;49.044;8.716;2023-05-21T15:21:58;98531.41;;;30.32;34.31
25610;BME280;13479;49.044;8.716;2023-05-21T15:24:24;98533.31;;;30.42;32.36
25610;BME280;13479;49.044;8.716;2023-05-21T15:26:49;98532.78;;;30.30;34.57
25610;BME280;13479;49.044;8.716;2023-05-21T15:29:15;98534.44;;;30.20;36.26
25610;BME280;13479;49.044;8.716;2023-05-21T15:31:40;98518.03;;;30.10;34.89
25610;BME280;13479;49.044;8.716;2023-05-21T15:34:05;98518.00;;;30.05;35.03
25610;BME280;13479;49.044;8.716;2023-05-21T15:36:30;98516.91;;;30.06;35.19
25610;BME280;13479;49.044;8.716;2023-05-21T15:38:56;98516.09;;;30.11;34.11
25610;BME280;13479;49.044;8.716;2023-05-21T15:41:21;98523.22;;;30.17;34.80
25610;BME280;13479;49.044;8.716;2023-05-21T15:43:46;98516.34;;;30.14;35.19
25610;BME280;13479;49.044;8.716;2023-05-21T15:46:11;98514.44;;;30.10;36.17
25610;BME280;13479;49.044;8.716;2023-05-21T15:48:37;98516.91;;;30.01;36.58
25610;BME280;13479;49.044;8.716;2023-05-21T15:51:02;98507.56;;;29.81;36.50
25610;BME280;13479;49.044;8.716;2023-05-21T15:53:28;98513.84;;;29.71;35.39
25610;BME280;13479;49.044;8.716;2023-05-21T15:55:53;98511.38;;;29.70;36.67
25610;BME280;13479;49.044;8.716;2023-05-21T15:58:18;98515.19;;;29.69;36.84
25610;BME280;13479;49.044;8.716;2023-05-21T16:00:44;98524.22;;;29.74;37.59
25610;BME280;13479;49.044;8.716;2023-05-21T16:03:09;98522.88;;;29.77;38.08
25610;BME280;13479;49.044;8.716;2023-05-21T16:05:36;98516.81;;;29.59;39.06
25610;BME280;13479;49.044;8.716;2023-05-21T16:08:01;98523.09;;;29.50;39.39
25610;BME280;13479;49.044;8.716;2023-05-21T16:10:27;98518.38;;;29.35;39.46
25610;BME280;13479;49.044;8.716;2023-05-21T16:12:52;98510.69;;;29.21;39.79
25610;BME280;13479;49.044;8.716;2023-05-21T16:15:17;98522.34;;;29.06;40.79
25610;BME280;13479;49.044;8.716;2023-05-21T16:17:42;98525.38;;;29.10;41.46
25610;BME280;13479;49.044;8.716;2023-05-21T16:20:08;98522.34;;;29.01;41.75
25610;BME280;13479;49.044;8.716;2023-05-21T16:22:33;98521.72;;;28.94;41.97
25610;BME280;13479;49.044;8.716;2023-05-21T16:24:58;98521.44;;;28.85;43.09
25610;BME280;13479;49.044;8.716;2023-05-21T16:27:24;98516.16;;;28.73;41.53
25610;BME280;13479;49.044;8.716;2023-05-21T16:29:49;98515.84;;;28.64;41.59
25610;BME280;13479;49.044;8.716;2023-05-21T16:32:14;98507.56;;;28.54;41.99
25610;BME280;13479;49.044;8.716;2023-05-21T16:34:40;98514.88;;;28.43;42.56
25610;BME280;13479;49.044;8.716;2023-05-21T16:37:05;98516.66;;;28.27;42.54
25610;BME280;13479;49.044;8.716;2023-05-21T16:39:33;98504.66;;;28.28;41.45
25610;BME280;13479;49.044;8.716;2023-05-21T16:41:58;98497.50;;;28.22;42.92
25610;BME280;13479;49.044;8.716;2023-05-21T16:44:24;98502.66;;;28.13;43.24
25610;BME280;13479;49.044;8.716;2023-05-21T16:46:50;98504.69;;;28.01;44.87
25610;BME280;13479;49.044;8.716;2023-05-21T16:49:15;98511.16;;;27.95;44.92
25610;BME280;13479;49.044;8.716;2023-05-21T16:51:40;98497.06;;;27.75;44.92
25610;BME280;13479;49.044;8.716;2023-05-21T16:54:06;98494.81;;;27.67;45.74
25610;BME280;13479;49.044;8.716;2023-05-21T16:56:31;98499.16;;;27.63;46.03
25610;BME280;13479;49.044;8.716;2023-05-21T16:58:56;98508.03;;;27.53;47.01
25610;BME280;13479;49.044;8.716;2023-05-21T17:01:22;98490.97;;;27.41;46.28
25610;BME280;13479;49.044;8.716;2023-05-21T17:03:47;98496.03;;;27.27;46.53
25610;BME280;13479;49.044;8.716;2023-05-21T17:06:12;98496.81;;;27.27;46.51
25610;BME280;13479;49.044;8.716;2023-05-21T17:08:38;98500.19;;;27.12;45.31
25610;BME280;13479;49.044;8.716;2023-05-21T17:11:05;98489.56;;;27.11;45.92
25610;BME280;13479;49.044;8.716;2023-05-21T17:13:30;98487.72;;;26.94;45.46
25610;BME280;13479;49.044;8.716;2023-05-21T17:15:55;98490.03;;;26.86;45.12
25610;BME280;13479;49.044;8.716;2023-05-21T17:18:20;98490.41;;;26.72;45.36
25610;BME280;13479;49.044;8.716;2023-05-21T17:20:46;98491.16;;;26.67;45.80
25610;BME280;13479;49.044;8.716;2023-05-21T17:23:11;98487.53;;;26.62;46.41
25610;BME280;13479;49.044;8.716;2023-05-21T17:25:36;98487.72;;;26.55;47.00